Time;durP1;ratioP1;P1;durP2;ratioP2;P2;SDS_P1;SDS_P2;PMS_P1;PMS_P2;Temp;Humidity;BMP_temperature;BMP_pressure;BME280_temperature;BME280_humidity;BME280_pressure;Samples;Min_cycle;Max_cycle;Signal;HPM_P1;HPM_P2
2022/05/16 06:11:37;;;;;;;;;;;;;;;15.19;70.08;100423.41;5002105;28;1394;-92
2022/05/16 06:14:02;;;;;;;;;;;;;;;15.24;71.11;100415.00;4981977;28;1338;-91
2022/05/16 06:16:27;;;;;;;;;;;;;;;15.30;70.95;100424.81;5000243;28;1490;-91
2022/05/16 06:18:53;;;;;;;;;;;;;;;15.40;69.70;100422.59;4977625;28;1910;-91
2022/05/16 06:21:18;;;;;;;;;;;;;;;15.46;68.64;100412.25;4982019;28;1552;-90
2022/05/16 06:23:43;;;;;;;;;;;;;;;15.54;65.94;100413.47;4987895;28;1406;-91
2022/05/16 06:26:08;;;;;;;;;;;;;;;15.65;63.64;100417.59;4988507;28;1487;-91
2022/05/16 06:28:37;;;;;;;;;;;;;;;15.71;61.65;100421.84;4985339;28;1363;-91
2022/05/16 06:31:03;;;;;;;;;;;;;;;15.82;57.43;100415.72;4983083;28;1462;-91
2022/05/16 06:33:31;;;;;;;;;;;;;;;15.87;58.85;100414.78;4987148;28;1759;-92
2022/05/16 06:35:57;;;;;;;;;;;;;;;15.93;60.40;100419.03;4985030;28;1221;-91
2022/05/16 06:38:24;;;;;;;;;;;;;;;15.99;59.80;100416.94;4976930;28;1886;-90
2022/05/16 06:40:49;;;;;;;;;;;;;;;16.03;59.32;100417.94;4999022;28;1610;-91
2022/05/16 06:43:15;;;;;;;;;;;;;;;16.05;60.09;100413.72;4997163;28;1312;-90
2022/05/16 06:45:41;;;;;;;;;;;;;;;16.10;59.55;100410.81;4997178;28;1412;-89
2022/05/16 06:48:06;;;;;;;;;;;;;;;16.18;59.13;100411.97;4992539;28;1589;-91
2022/05/16 06:50:33;;;;;;;;;;;;;;;16.21;58.87;100406.63;4978394;28;1289;-91
2022/05/16 06:52:58;;;;;;;;;;;;;;;16.22;58.65;100408.25;4978874;28;1201;-93
2022/05/16 06:55:24;;;;;;;;;;;;;;;16.25;57.72;100402.06;4978638;28;1242;-91
2022/05/16 06:57:49;;;;;;;;;;;;;;;16.31;57.25;100396.44;4977838;28;1898;-91
2022/05/16 07:00:15;;;;;;;;;;;;;;;16.35;57.25;100400.97;4977267;28;1379;-91
2022/05/16 07:02:40;;;;;;;;;;;;;;;16.37;57.34;100400.66;5002858;28;1119;-90
2022/05/16 07:05:06;;;;;;;;;;;;;;;16.38;57.95;100405.06;4977441;28;1252;-90
2022/05/16 07:07:31;;;;;;;;;;;;;;;16.44;57.64;100403.75;4977498;28;1206;-91
2022/05/16 07:09:56;;;;;;;;;;;;;;;16.48;57.61;100396.47;4977567;28;1309;-91
2022/05/16 07:12:21;;;;;;;;;;;;;;;16.57;57.91;100403.63;4977440;28;1416;-91
2022/05/16 07:14:48;;;;;;;;;;;;;;;16.67;58.69;100402.53;4977318;28;1204;-90
2022/05/16 07:17:13;;;;;;;;;;;;;;;16.71;58.21;100391.63;4977531;28;1631;-91
2022/05/16 07:19:39;;;;;;;;;;;;;;;16.74;58.37;100386.28;4983963;28;1898;-91
2022/05/16 07:22:08;;;;;;;;;;;;;;;16.82;58.23;100373.59;4978002;28;1171;-91
2022/05/16 07:24:33;;;;;;;;;;;;;;;16.87;57.73;100382.53;4978012;28;1169;-91
2022/05/16 07:29:42;;;;;;;;;;;;;;;16.90;57.55;100395.72;4994702;28;1352;-90
2022/05/16 07:32:11;;;;;;;;;;;;;;;16.99;58.18;100398.50;4983253;28;1409;-91
2022/05/16 07:34:37;;;;;;;;;;;;;;;17.08;58.02;100392.94;4996713;28;1408;-91
2022/05/16 07:37:02;;;;;;;;;;;;;;;17.13;57.89;100392.78;4996753;28;1245;-91
2022/05/16 07:39:27;;;;;;;;;;;;;;;17.15;57.81;100394.09;4996501;28;1863;-91
2022/05/16 07:41:54;;;;;;;;;;;;;;;17.16;57.52;100384.66;4996555;28;1798;-91
2022/05/16 07:44:19;;;;;;;;;;;;;;;17.21;56.43;100381.69;4992352;28;1237;-91
2022/05/16 07:46:44;;;;;;;;;;;;;;;17.30;57.31;100378.91;5009305;28;1291;-91
2022/05/16 07:49:10;;;;;;;;;;;;;;;17.32;57.27;100382.19;4977193;28;1217;-91
2022/05/16 07:51:35;;;;;;;;;;;;;;;17.42;57.03;100384.59;4977345;28;1303;-91
2022/05/16 07:54:00;;;;;;;;;;;;;;;17.51;55.81;100381.81;4976860;28;943;-90
2022/05/16 07:56:26;;;;;;;;;;;;;;;17.50;56.00;100374.66;4976733;28;1750;-91
2022/05/16 07:58:51;;;;;;;;;;;;;;;17.61;56.51;100376.72;4976854;28;1906;-91
2022/05/16 08:01:16;;;;;;;;;;;;;;;17.66;55.56;100375.78;4977066;28;1029;-91
2022/05/16 08:03:42;;;;;;;;;;;;;;;17.73;54.91;100373.31;4977023;28;1310;-91
2022/05/16 08:06:07;;;;;;;;;;;;;;;17.82;56.12;100376.03;4977290;28;1362;-91
2022/05/16 08:11:19;;;;;;;;;;;;;;;17.94;55.92;100384.47;4996443;28;1467;-91
2022/05/16 08:13:44;;;;;;;;;;;;;;;17.95;56.49;100386.88;4980647;28;1194;-89
2022/05/16 08:16:10;;;;;;;;;;;;;;;18.04;54.69;100378.53;4980777;28;1275;-91
2022/05/16 08:18:35;;;;;;;;;;;;;;;18.15;55.26;100380.59;4980633;28;1952;-91
2022/05/16 08:21:00;;;;;;;;;;;;;;;18.24;54.70;100375.03;4997717;28;1075;-91
2022/05/16 08:23:27;;;;;;;;;;;;;;;18.35;55.03;100379.03;4997588;28;1107;-91
2022/05/16 08:25:53;;;;;;;;;;;;;;;18.40;53.38;100378.81;4980409;28;1355;-91
2022/05/16 08:28:19;;;;;;;;;;;;;;;18.48;54.13;100386.28;4976497;28;1821;-91
2022/05/16 08:30:44;;;;;;;;;;;;;;;18.58;54.74;100387.06;4976809;28;1198;-91
2022/05/16 08:33:10;;;;;;;;;;;;;;;18.72;54.04;100385.63;4975699;28;1326;-90
2022/05/16 08:35:35;;;;;;;;;;;;;;;18.85;51.83;100390.13;4979866;28;1748;-91
2022/05/16 08:40:54;;;;;;;;;;;;;;;19.25;52.72;100389.59;4997125;28;608;-91
2022/05/16 08:43:37;;;;;;;;;;;;;;;19.32;53.18;100394.59;4979289;28;1746;-92
2022/05/16 08:46:22;;;;;;;;;;;;;;;19.30;51.72;100391.38;4995886;28;1107;-91
2022/05/16 08:48:51;;;;;;;;;;;;;;;19.27;52.18;100399.22;4979635;28;1279;-91
2022/05/16 08:51:19;;;;;;;;;;;;;;;19.34;51.72;100393.09;4979506;28;1410;-90
2022/05/16 08:53:47;;;;;;;;;;;;;;;19.34;51.42;100397.84;4995748;28;1315;-91
2022/05/16 08:56:23;;;;;;;;;;;;;;;19.41;52.07;100396.13;4990861;28;1695;-91
2022/05/16 08:58:52;;;;;;;;;;;;;;;19.46;51.93;100395.94;4979150;28;1898;-91
2022/05/16 09:01:20;;;;;;;;;;;;;;;19.50;51.73;100399.66;4979294;28;1225;-91
2022/05/16 09:03:46;;;;;;;;;;;;;;;19.54;52.46;100394.25;4979115;28;1293;-91
2022/05/16 09:06:17;;;;;;;;;;;;;;;19.63;52.93;100389.41;4979115;28;1296;-91
2022/05/16 09:08:42;;;;;;;;;;;;;;;19.61;51.56;100388.94;4979481;28;1257;-91
2022/05/16 09:11:20;;;;;;;;;;;;;;;19.59;54.46;100394.03;4978735;28;1274;-91
2022/05/16 09:13:47;;;;;;;;;;;;;;;19.58;53.78;100392.41;4996500;28;950;-91
2022/05/16 09:16:33;;;;;;;;;;;;;;;19.61;52.90;100397.28;4996486;28;779;-91
2022/05/16 09:19:10;;;;;;;;;;;;;;;19.58;52.01;100393.19;4996256;28;1957;-89
2022/05/16 09:21:38;;;;;;;;;;;;;;;19.62;52.33;100387.78;4972063;28;1312;-90
2022/05/16 09:24:04;;;;;;;;;;;;;;;19.68;53.68;100385.59;4995987;28;984;-91
2022/05/16 09:26:47;;;;;;;;;;;;;;;19.76;54.33;100388.28;4978747;28;1596;-91
2022/05/16 09:29:26;;;;;;;;;;;;;;;19.84;53.34;100383.75;4978737;28;1297;-92
2022/05/16 09:31:54;;;;;;;;;;;;;;;19.91;52.76;100376.47;4978912;28;1389;-91
2022/05/16 09:34:19;;;;;;;;;;;;;;;19.99;52.34;100375.56;4978702;28;1197;-91
2022/05/16 09:36:48;;;;;;;;;;;;;;;20.11;53.93;100371.97;4979005;28;1516;-91
2022/05/16 09:39:17;;;;;;;;;;;;;;;20.15;51.95;100384.03;4980288;28;1894;-91
2022/05/16 09:41:54;;;;;;;;;;;;;;;20.17;52.35;100378.09;4979506;28;1260;-91
2022/05/16 09:44:22;;;;;;;;;;;;;;;20.25;52.45;100382.72;4986936;28;1671;-92
2022/05/16 09:46:49;;;;;;;;;;;;;;;20.32;53.26;100385.75;4959078;28;1199;-91
2022/05/16 09:49:24;;;;;;;;;;;;;;;20.35;52.69;100385.09;4976404;28;1177;-90
2022/05/16 09:51:51;;;;;;;;;;;;;;;20.38;52.60;100387.16;4960359;28;1300;-92
2022/05/16 09:54:22;;;;;;;;;;;;;;;20.33;53.24;100385.38;4961727;28;1296;-91
2022/05/16 09:56:52;;;;;;;;;;;;;;;20.31;54.59;100386.91;4961061;28;1322;-92
2022/05/16 09:59:32;;;;;;;;;;;;;;;20.32;53.73;100385.75;4961094;28;1883;-91
2022/05/16 10:02:06;;;;;;;;;;;;;;;20.37;52.75;100386.38;4960656;28;1257;-90
2022/05/16 10:04:38;;;;;;;;;;;;;;;20.42;52.65;100388.09;4958606;28;1364;-90
2022/05/16 10:07:03;;;;;;;;;;;;;;;20.50;52.68;100400.25;4968811;28;1681;-91
2022/05/16 10:09:30;;;;;;;;;;;;;;;20.48;52.44;100394.22;4975097;28;1530;-91
2022/05/16 10:11:57;;;;;;;;;;;;;;;20.42;52.91;100396.41;4975996;28;1033;-91
2022/05/16 10:14:22;;;;;;;;;;;;;;;20.38;54.35;100398.28;4975755;28;1002;-91
2022/05/16 10:16:48;;;;;;;;;;;;;;;20.31;54.50;100400.81;4974701;28;772;-91
2022/05/16 10:19:15;;;;;;;;;;;;;;;20.25;53.35;100385.50;4958323;28;1890;-90
2022/05/16 10:21:55;;;;;;;;;;;;;;;20.18;53.54;100394.44;4958666;28;1311;-91
2022/05/16 10:24:23;;;;;;;;;;;;;;;20.18;52.90;100393.63;4958610;28;1251;-91
2022/05/16 10:26:50;;;;;;;;;;;;;;;20.13;53.43;100396.66;4981371;28;1212;-90
2022/05/16 10:29:17;;;;;;;;;;;;;;;20.06;54.47;100408.34;4997644;28;1269;-91
2022/05/16 10:34:35;;;;;;;;;;;;;;;19.93;55.80;100410.28;5014364;28;632;-90
2022/05/16 10:37:02;;;;;;;;;;;;;;;19.84;53.94;100406.78;4993863;28;1640;-91
2022/05/16 10:39:28;;;;;;;;;;;;;;;19.79;55.70;100407.03;4993596;28;1949;-91
2022/05/16 10:42:04;;;;;;;;;;;;;;;19.74;57.42;100400.88;4993770;28;1213;-91
2022/05/16 10:44:44;;;;;;;;;;;;;;;19.69;55.28;100410.25;4997319;28;1277;-91
2022/05/16 10:47:21;;;;;;;;;;;;;;;19.67;55.54;100412.53;4997157;28;1363;-92
2022/05/16 10:49:55;;;;;;;;;;;;;;;19.69;56.24;100406.66;4996946;28;1241;-92
2022/05/16 10:52:40;;;;;;;;;;;;;;;19.66;56.02;100410.91;4997145;28;1218;-92
2022/05/16 10:55:06;;;;;;;;;;;;;;;19.65;55.66;100412.06;4997343;28;1177;-91
2022/05/16 10:57:51;;;;;;;;;;;;;;;19.66;56.37;100413.69;4979573;28;1898;-91
2022/05/16 11:00:19;;;;;;;;;;;;;;;19.70;56.58;100413.84;4974761;28;1232;-92
2022/05/16 11:02:56;;;;;;;;;;;;;;;19.68;56.00;100413.38;4960285;28;1389;-91
2022/05/16 11:05:32;;;;;;;;;;;;;;;19.68;55.87;100414.19;4977495;28;1225;-91
2022/05/16 11:08:09;;;;;;;;;;;;;;;19.72;55.49;100417.09;4960971;28;1328;-91
2022/05/16 11:10:38;;;;;;;;;;;;;;;19.70;56.22;100420.19;4959233;28;1207;-91
2022/05/16 11:13:09;;;;;;;;;;;;;;;19.65;57.75;100421.22;4958481;28;1304;-92
2022/05/16 11:15:43;;;;;;;;;;;;;;;19.60;58.91;100417.84;4974582;28;1491;-91
2022/05/16 11:18:23;;;;;;;;;;;;;;;19.53;60.04;100429.53;4958783;28;1903;-91
2022/05/16 11:20:54;;;;;;;;;;;;;;;19.45;61.04;100437.91;4974853;28;1706;-91
2022/05/16 11:23:34;;;;;;;;;;;;;;;19.35;63.73;100444.69;4977806;28;1716;-92
2022/05/16 11:26:18;;;;;;;;;;;;;;;19.27;62.37;100446.41;4977863;28;1233;-90
2022/05/16 11:31:46;;;;;;;;;;;;;;;19.16;62.86;100453.50;4994782;28;628;-91
2022/05/16 11:34:15;;;;;;;;;;;;;;;19.02;64.79;100457.72;4977084;28;793;-92
2022/05/16 11:36:49;;;;;;;;;;;;;;;18.97;67.32;100461.47;4977416;28;1274;-91
2022/05/16 11:39:20;;;;;;;;;;;;;;;18.98;67.90;100465.06;4977016;28;1898;-92
2022/05/16 11:41:56;;;;;;;;;;;;;;;18.97;68.80;100466.25;4977557;28;1415;-92
2022/05/16 11:44:50;;;;;;;;;;;;;;;18.95;69.86;100469.34;4977476;28;1378;-92
2022/05/16 11:47:20;;;;;;;;;;;;;;;19.03;68.89;100464.88;4961791;28;1209;-92
2022/05/16 11:49:48;;;;;;;;;;;;;;;19.00;69.41;100466.34;4981235;28;1400;-92
2022/05/16 11:52:22;;;;;;;;;;;;;;;19.14;70.13;100457.78;4981117;28;1374;-91
2022/05/16 11:54:56;;;;;;;;;;;;;;;19.34;70.62;100453.34;4980750;28;1299;-91
2022/05/16 12:03:06;;;;;;;;;;;;;;;19.58;68.04;100442.38;4998413;28;893;-91
2022/05/16 12:05:37;;;;;;;;;;;;;;;19.61;68.20;100438.91;4980545;28;1264;-91
2022/05/16 12:08:04;;;;;;;;;;;;;;;19.81;68.35;100438.06;4980709;28;1244;-91
2022/05/16 12:10:33;;;;;;;;;;;;;;;19.76;66.55;100449.38;4985774;28;1660;-91
2022/05/16 12:13:13;;;;;;;;;;;;;;;19.70;63.89;100445.19;5012600;28;1261;-92
2022/05/16 12:15:38;;;;;;;;;;;;;;;19.83;63.79;100432.94;4999683;28;1403;-91
2022/05/16 12:18:27;;;;;;;;;;;;;;;19.91;67.25;100423.69;4999086;28;1959;-90
2022/05/16 12:20:58;;;;;;;;;;;;;;;20.00;67.69;100429.16;4984307;28;1238;-91
2022/05/16 12:23:42;;;;;;;;;;;;;;;20.10;64.62;100431.50;4999331;28;1312;-90
2022/05/16 12:26:09;;;;;;;;;;;;;;;20.33;63.33;100431.88;4999479;28;1469;-91
2022/05/16 12:28:34;;;;;;;;;;;;;;;20.50;63.68;100428.06;4999719;28;1239;-92
2022/05/16 12:31:00;;;;;;;;;;;;;;;20.57;63.69;100423.53;4999651;28;1240;-91
2022/05/16 12:33:49;;;;;;;;;;;;;;;20.59;64.00;100418.41;5000286;28;1207;-92
2022/05/16 12:36:16;;;;;;;;;;;;;;;20.50;62.68;100417.72;4992337;28;1444;-91
2022/05/16 12:38:42;;;;;;;;;;;;;;;20.43;61.24;100423.06;5016792;28;1955;-92
2022/05/16 12:41:11;;;;;;;;;;;;;;;20.41;61.90;100419.03;4999788;28;1297;-92
2022/05/16 12:43:57;;;;;;;;;;;;;;;20.37;61.66;100416.94;4999274;28;1457;-91
2022/05/16 12:46:42;;;;;;;;;;;;;;;20.37;61.32;100419.72;4999562;28;1212;-90
2022/05/16 12:49:20;;;;;;;;;;;;;;;20.35;60.24;100419.25;4990041;28;1716;-91
2022/05/16 12:51:56;;;;;;;;;;;;;;;20.29;60.24;100412.28;4979491;28;1240;-89
2022/05/16 12:54:21;;;;;;;;;;;;;;;20.23;59.89;100415.66;4961153;28;1333;-92
2022/05/16 12:56:54;;;;;;;;;;;;;;;20.18;60.02;100407.53;4960152;28;1285;-92
2022/05/16 12:59:31;;;;;;;;;;;;;;;20.14;61.99;100415.75;4959780;28;1949;-92
2022/05/16 13:02:07;;;;;;;;;;;;;;;20.16;63.91;100418.97;4960063;28;1325;-92
2022/05/16 13:04:47;;;;;;;;;;;;;;;20.03;61.33;100412.63;4960113;28;1251;-91
2022/05/16 13:07:12;;;;;;;;;;;;;;;19.98;63.10;100412.84;4977321;28;878;-92
2022/05/16 13:09:45;;;;;;;;;;;;;;;19.95;63.85;100413.53;4960105;28;1291;-92
2022/05/16 13:12:30;;;;;;;;;;;;;;;19.99;63.95;100417.22;4960106;28;1138;-91
2022/05/16 13:15:18;;;;;;;;;;;;;;;20.06;64.01;100410.31;4979636;28;1730;-90
2022/05/16 13:17:48;;;;;;;;;;;;;;;20.15;62.94;100408.22;4995451;28;1959;-92
2022/05/16 13:20:19;;;;;;;;;;;;;;;20.38;63.19;100403.84;4997116;28;1393;-91
2022/05/16 13:22:48;;;;;;;;;;;;;;;20.73;62.80;100404.16;4986063;28;1320;-91
2022/05/16 13:25:13;;;;;;;;;;;;;;;20.70;62.67;100405.66;4991981;28;1758;-92
2022/05/16 13:30:23;;;;;;;;;;;;;;;20.49;61.19;100406.97;4977661;28;621;-92
2022/05/16 13:32:49;;;;;;;;;;;;;;;20.44;61.59;100413.56;4959880;28;1262;-92
2022/05/16 13:35:24;;;;;;;;;;;;;;;20.43;61.86;100411.13;4962404;28;1388;-91
2022/05/16 13:37:50;;;;;;;;;;;;;;;20.32;62.24;100408.00;4960229;28;1953;-91
2022/05/16 13:40:23;;;;;;;;;;;;;;;20.27;62.93;100399.88;4959652;28;1276;-90
2022/05/16 13:42:48;;;;;;;;;;;;;;;20.26;64.26;100398.25;4959964;28;1238;-91
2022/05/16 13:45:14;;;;;;;;;;;;;;;20.27;65.05;100397.09;4959581;28;1198;-91
2022/05/16 13:47:40;;;;;;;;;;;;;;;20.22;63.10;100405.69;4977073;28;767;-90
2022/05/16 13:50:07;;;;;;;;;;;;;;;20.27;64.48;100409.03;4958817;28;1279;-90
2022/05/16 13:52:38;;;;;;;;;;;;;;;20.43;65.00;100395.25;4959098;28;1256;-91
2022/05/16 13:55:06;;;;;;;;;;;;;;;20.57;65.15;100408.81;4969481;28;1724;-90
2022/05/16 13:57:31;;;;;;;;;;;;;;;20.64;64.91;100401.50;4978374;28;1435;-91
2022/05/16 14:00:12;;;;;;;;;;;;;;;20.63;65.14;100402.66;4978116;28;1961;-91
2022/05/16 14:02:38;;;;;;;;;;;;;;;20.75;64.75;100404.63;4978153;28;1344;-92
2022/05/16 14:05:10;;;;;;;;;;;;;;;20.75;64.23;100407.41;4978253;28;1233;-91
2022/05/16 14:07:35;;;;;;;;;;;;;;;20.66;62.85;100410.31;4978282;28;1302;-90
2022/05/16 14:10:11;;;;;;;;;;;;;;;20.76;62.68;100409.00;4978304;28;1275;-91
2022/05/16 14:12:47;;;;;;;;;;;;;;;20.86;61.64;100408.50;4979813;28;1846;-91
2022/05/16 14:15:30;;;;;;;;;;;;;;;21.00;61.37;100408.16;4995538;28;1335;-91
2022/05/16 14:18:04;;;;;;;;;;;;;;;21.07;62.14;100411.94;4995006;28;1910;-91
2022/05/16 14:20:38;;;;;;;;;;;;;;;21.12;62.40;100417.25;4994818;28;1149;-90
2022/05/16 14:23:12;;;;;;;;;;;;;;;21.34;62.61;100415.94;4978331;28;1403;-91
2022/05/16 14:25:40;;;;;;;;;;;;;;;21.68;63.83;100406.13;4994714;28;1455;-91
2022/05/16 14:28:24;;;;;;;;;;;;;;;22.02;63.00;100409.41;4994417;28;1264;-91
2022/05/16 14:30:51;;;;;;;;;;;;;;;22.13;62.73;100405.72;4975469;28;1392;-91
2022/05/16 14:33:17;;;;;;;;;;;;;;;23.46;59.16;100399.94;4994022;28;1223;-92
2022/05/16 14:35:53;;;;;;;;;;;;;;;24.22;55.95;100392.56;4977329;28;1390;-91
2022/05/16 14:38:19;;;;;;;;;;;;;;;23.38;57.50;100387.81;4994567;28;1891;-91
2022/05/16 14:40:48;;;;;;;;;;;;;;;23.00;56.45;100387.81;4974010;28;1733;-91
2022/05/16 14:43:29;;;;;;;;;;;;;;;22.81;59.23;100374.66;4981741;28;1740;-91
2022/05/16 14:48:40;;;;;;;;;;;;;;;23.82;56.98;100379.03;4988479;28;1314;-91
2022/05/16 14:51:06;;;;;;;;;;;;;;;23.84;55.57;100378.69;4977110;28;1764;-91
2022/05/16 14:53:32;;;;;;;;;;;;;;;24.23;54.30;100371.78;4976763;28;1263;-92
2022/05/16 14:56:00;;;;;;;;;;;;;;;23.81;54.43;100373.84;4976057;28;1808;-91
2022/05/16 14:58:25;;;;;;;;;;;;;;;23.46;55.93;100369.19;4976525;28;1890;-91
2022/05/16 15:06:20;;;;;;;;;;;;;;;23.94;54.99;100364.09;4990337;28;1504;-90
2022/05/16 15:08:47;;;;;;;;;;;;;;;23.43;55.79;100364.34;4977015;28;1630;-90
2022/05/16 15:11:13;;;;;;;;;;;;;;;23.25;55.74;100363.19;4994295;28;1327;-91
2022/05/16 15:13:38;;;;;;;;;;;;;;;23.40;56.22;100360.28;4974064;28;1390;-90
2022/05/16 15:16:04;;;;;;;;;;;;;;;23.38;54.63;100353.47;4957754;28;1208;-90
2022/05/16 15:18:30;;;;;;;;;;;;;;;23.07;55.67;100354.44;4957726;28;1977;-91
2022/05/16 15:20:57;;;;;;;;;;;;;;;22.91;55.93;100353.72;4978226;28;969;-91
2022/05/16 15:23:25;;;;;;;;;;;;;;;22.91;55.75;100343.38;4962083;28;1369;-91
2022/05/16 15:25:52;;;;;;;;;;;;;;;23.33;55.15;100349.00;4985066;28;1226;-92
2022/05/16 15:28:17;;;;;;;;;;;;;;;23.67;53.91;100347.25;4993403;28;1344;-91
2022/05/16 15:30:42;;;;;;;;;;;;;;;23.51;54.81;100354.13;4980728;28;1257;-90
2022/05/16 15:33:08;;;;;;;;;;;;;;;23.22;54.00;100344.41;4980545;28;1442;-91
2022/05/16 15:35:34;;;;;;;;;;;;;;;23.07;54.55;100353.66;4981125;28;1141;-91
2022/05/16 15:37:59;;;;;;;;;;;;;;;22.92;56.27;100358.94;4981013;28;1959;-91
2022/05/16 15:40:24;;;;;;;;;;;;;;;22.85;55.79;100352.41;4981243;28;1231;-91
2022/05/16 15:42:50;;;;;;;;;;;;;;;22.78;56.85;100341.09;4980666;28;1310;-90
2022/05/16 15:45:15;;;;;;;;;;;;;;;22.72;55.40;100350.88;4980131;28;1696;-91
2022/05/16 15:47:45;;;;;;;;;;;;;;;22.55;55.56;100346.53;4980139;28;1194;-90
2022/05/16 15:50:12;;;;;;;;;;;;;;;22.45;56.01;100350.72;4979804;28;1628;-90
2022/05/16 15:52:37;;;;;;;;;;;;;;;22.40;56.42;100344.59;4995671;28;1434;-91
2022/05/16 15:55:03;;;;;;;;;;;;;;;22.29;56.95;100344.34;5011299;28;1233;-90
2022/05/16 15:57:28;;;;;;;;;;;;;;;22.23;56.83;100348.59;4999869;28;1374;-91
2022/05/16 15:59:54;;;;;;;;;;;;;;;22.15;56.73;100342.03;4998027;28;1898;-90
2022/05/16 16:02:21;;;;;;;;;;;;;;;22.12;58.42;100347.53;4982667;28;1801;-91
2022/05/16 16:10:19;;;;;;;;;;;;;;;21.82;60.24;100358.31;4998651;28;1326;-91
2022/05/16 16:12:44;;;;;;;;;;;;;;;21.83;61.95;100355.19;4981194;28;1338;-90
2022/05/16 16:15:11;;;;;;;;;;;;;;;21.83;62.42;100355.19;4998348;28;1004;-91
2022/05/16 16:17:36;;;;;;;;;;;;;;;21.80;62.81;100357.84;4980714;28;1312;-91
2022/05/16 16:20:03;;;;;;;;;;;;;;;21.76;62.89;100368.94;4980739;28;1961;-90
2022/05/16 16:22:28;;;;;;;;;;;;;;;21.72;62.00;100375.56;4995102;28;1324;-91
2022/05/16 16:24:54;;;;;;;;;;;;;;;21.59;63.60;100376.81;5000325;28;1388;-91
2022/05/16 16:27:20;;;;;;;;;;;;;;;21.61;64.04;100385.59;4980297;28;1317;-91
2022/05/16 16:29:45;;;;;;;;;;;;;;;21.63;65.48;100380.50;4980497;28;1311;-91
2022/05/16 16:32:10;;;;;;;;;;;;;;;21.61;67.83;100386.41;4979764;28;1341;-91
2022/05/16 16:34:35;;;;;;;;;;;;;;;21.53;66.82;100385.41;4980770;28;949;-91
2022/05/16 16:37:01;;;;;;;;;;;;;;;21.52;67.51;100389.38;4980515;28;1547;-91
2022/05/16 16:39:27;;;;;;;;;;;;;;;21.38;67.36;100389.00;4987142;28;1965;-92
2022/05/16 16:41:52;;;;;;;;;;;;;;;21.30;68.05;100386.38;5001890;28;1395;-91
2022/05/16 16:44:18;;;;;;;;;;;;;;;21.27;68.04;100387.88;4979114;28;1350;-91
2022/05/16 16:46:45;;;;;;;;;;;;;;;21.20;67.79;100384.88;4989456;28;1220;-92
2022/05/16 16:49:10;;;;;;;;;;;;;;;21.14;68.32;100389.88;5005171;28;1383;-91
2022/05/16 16:59:49;;;;;;;;;;;;;;;21.06;71.54;100396.41;4997022;28;1893;-91
2022/05/16 17:02:21;;;;;;;;;;;;;;;21.03;71.51;100390.72;4988952;28;1764;-91
2022/05/16 17:04:51;;;;;;;;;;;;;;;20.93;70.91;100399.56;4979075;28;1234;-91
2022/05/16 17:07:21;;;;;;;;;;;;;;;20.90;70.35;100395.53;4966334;28;1494;-90
2022/05/16 17:09:48;;;;;;;;;;;;;;;20.90;71.78;100403.06;4985230;28;1653;-91
2022/05/16 17:12:13;;;;;;;;;;;;;;;20.96;71.36;100408.03;4985207;28;1533;-90
2022/05/16 17:14:38;;;;;;;;;;;;;;;20.85;72.26;100408.88;4982185;28;1487;-92
2022/05/16 17:17:04;;;;;;;;;;;;;;;20.77;72.45;100408.66;4977706;28;1413;-91
2022/05/16 17:19:30;;;;;;;;;;;;;;;20.84;70.27;100412.84;4979054;28;1968;-91
2022/05/16 17:21:55;;;;;;;;;;;;;;;20.76;70.58;100418.16;4984470;28;1387;-91
2022/05/16 17:24:22;;;;;;;;;;;;;;;20.71;70.94;100429.53;4999436;28;1255;-91
2022/05/16 17:26:47;;;;;;;;;;;;;;;20.67;72.35;100436.16;4978488;28;1415;-90
2022/05/16 17:29:14;;;;;;;;;;;;;;;20.66;73.70;100454.81;4973099;28;1290;-90
2022/05/16 17:31:43;;;;;;;;;;;;;;;20.49;68.82;100449.50;4959513;28;1322;-90
2022/05/16 17:34:09;;;;;;;;;;;;;;;20.66;66.91;100454.81;4962565;28;1372;-90
2022/05/16 17:36:34;;;;;;;;;;;;;;;20.72;65.94;100460.94;4978482;28;1262;-91
